<?xml version="1.0" encoding="UTF-8" standalone="no" ?>
<gpx xmlns="http://www.topografix.com/GPX/1/1" xmlns:xsi="http://www.w3.org/2001/XMLSchema-instance" xsi:schemaLocation="http://www.topografix.com/GPX/1/1 http://www.topografix.com/GPX/1/1/gpx.xsd" version="1.1" creator="VisuGPX - https://www.visugpx.com">
  <metadata>
    <name>GTJ avec variantes GR5 - Labergement Sainte Marie &gt;Bellegarde</name>
  </metadata>
  <trk>
    <name><![CDATA[GR5 Chaux Neuve-Les Rousses]]></name>
    <trkseg>
      <trkpt lat="46.67906" lon="6.13356">
        <ele>990.538</ele>
        <time>2011-09-15T09:45:07Z</time>
      </trkpt>
      <trkpt lat="46.67774" lon="6.13661">
        <ele>999.97</ele>
        <time>2011-09-15T09:48:57Z</time>
      </trkpt>
      <trkpt lat="46.67682" lon="6.1382">
        <ele>1002.317</ele>
        <time>2011-09-15T09:50:30Z</time>
      </trkpt>
      <trkpt lat="46.67631" lon="6.13835">
        <ele>1004.007</ele>
        <time>2011-09-15T09:51:09Z</time>
      </trkpt>
      <trkpt lat="46.67519" lon="6.13751">
        <ele>1006.555</ele>
        <time>2011-09-15T09:52:33Z</time>
      </trkpt>
      <trkpt lat="46.67433" lon="6.13756">
        <ele>1009.363</ele>
        <time>2011-09-15T09:53:32Z</time>
      </trkpt>
      <trkpt lat="46.67375" lon="6.13522">
        <ele>1011.957</ele>
        <time>2011-09-15T09:55:25Z</time>
      </trkpt>
      <trkpt lat="46.67258" lon="6.13228">
        <ele>1017.027</ele>
        <time>2011-09-15T09:58:02Z</time>
      </trkpt>
      <trkpt lat="46.6716" lon="6.13165">
        <ele>1019.718</ele>
        <time>2011-09-15T09:59:15Z</time>
      </trkpt>
      <trkpt lat="46.67026" lon="6.13019">
        <ele>1024.335</ele>
        <time>2011-09-15T10:01:08Z</time>
      </trkpt>
      <trkpt lat="46.66954" lon="6.12972">
        <ele>1032.559</ele>
        <time>2011-09-15T10:02:07Z</time>
      </trkpt>
      <trkpt lat="46.66707" lon="6.12563">
        <ele>1057.869</ele>
        <time>2011-09-15T10:06:44Z</time>
      </trkpt>
      <trkpt lat="46.66611" lon="6.12274">
        <ele>1049.104</ele>
        <time>2011-09-15T10:09:07Z</time>
      </trkpt>
      <trkpt lat="46.66583" lon="6.12258">
        <ele>1047.924</ele>
        <time>2011-09-15T10:09:22Z</time>
      </trkpt>
      <trkpt lat="46.66584" lon="6.12216">
        <ele>1046.907</ele>
        <time>2011-09-15T10:09:40Z</time>
      </trkpt>
      <trkpt lat="46.66552" lon="6.12179">
        <ele>1044.958</ele>
        <time>2011-09-15T10:10:05Z</time>
      </trkpt>
      <trkpt lat="46.66521" lon="6.12084">
        <ele>1043.926</ele>
        <time>2011-09-15T10:11:37Z</time>
      </trkpt>
      <trkpt lat="46.66536" lon="6.1206">
        <ele>1044.27</ele>
        <time>2011-09-15T10:12:06Z</time>
      </trkpt>
      <trkpt lat="46.66496" lon="6.1187">
        <ele>1044.87</ele>
        <time>2011-09-15T10:13:37Z</time>
      </trkpt>
      <trkpt lat="46.66415" lon="6.11715">
        <ele>1046.581</ele>
        <time>2011-09-15T10:15:08Z</time>
      </trkpt>
      <trkpt lat="46.66395" lon="6.11694">
        <ele>1047.278</ele>
        <time>2011-09-15T10:15:32Z</time>
      </trkpt>
      <trkpt lat="46.66349" lon="6.11742">
        <ele>1052.272</ele>
        <time>2011-09-15T10:16:12Z</time>
      </trkpt>
      <trkpt lat="46.66297" lon="6.11762">
        <ele>1059.295</ele>
        <time>2011-09-15T10:16:53Z</time>
      </trkpt>
      <trkpt lat="46.66216" lon="6.11723">
        <ele>1062.849</ele>
        <time>2011-09-15T10:17:57Z</time>
      </trkpt>
      <trkpt lat="46.66201" lon="6.11664">
        <ele>1058.823</ele>
        <time>2011-09-15T10:18:27Z</time>
      </trkpt>
      <trkpt lat="46.66223" lon="6.11522">
        <ele>1046.407</ele>
        <time>2011-09-15T10:19:42Z</time>
      </trkpt>
      <trkpt lat="46.66118" lon="6.1113">
        <ele>1058.861</ele>
        <time>2011-09-15T10:23:21Z</time>
      </trkpt>
      <trkpt lat="46.66052" lon="6.10974">
        <ele>1062.939</ele>
        <time>2011-09-15T10:24:45Z</time>
      </trkpt>
      <trkpt lat="46.65993" lon="6.10912">
        <ele>1066.083</ele>
        <time>2011-09-15T10:25:39Z</time>
      </trkpt>
      <trkpt lat="46.65827" lon="6.10578">
        <ele>1065.973</ele>
        <time>2011-09-15T10:28:58Z</time>
      </trkpt>
      <trkpt lat="46.65792" lon="6.10592">
        <ele>1067.184</ele>
        <time>2011-09-15T10:29:22Z</time>
      </trkpt>
      <trkpt lat="46.65702" lon="6.10687">
        <ele>1082.711</ele>
        <time>2011-09-15T10:31:00Z</time>
      </trkpt>
      <trkpt lat="46.65667" lon="6.10679">
        <ele>1085.365</ele>
        <time>2011-09-15T10:31:39Z</time>
      </trkpt>
      <trkpt lat="46.65629" lon="6.10643">
        <ele>1090.159</ele>
        <time>2011-09-15T10:32:12Z</time>
      </trkpt>
      <trkpt lat="46.65585" lon="6.10633">
        <ele>1094.303</ele>
        <time>2011-09-15T10:32:40Z</time>
      </trkpt>
      <trkpt lat="46.65573" lon="6.10646">
        <ele>1096.623</ele>
        <time>2011-09-15T10:32:50Z</time>
      </trkpt>
      <trkpt lat="46.65561" lon="6.10707">
        <ele>1100.207</ele>
        <time>2011-09-15T10:33:24Z</time>
      </trkpt>
      <trkpt lat="46.65589" lon="6.10752">
        <ele>1104.487</ele>
        <time>2011-09-15T10:33:54Z</time>
      </trkpt>
      <trkpt lat="46.65601" lon="6.10809">
        <ele>1106.925</ele>
        <time>2011-09-15T10:34:24Z</time>
      </trkpt>
      <trkpt lat="46.6564" lon="6.10855">
        <ele>1112.369</ele>
        <time>2011-09-15T10:35:02Z</time>
      </trkpt>
      <trkpt lat="46.65695" lon="6.10978">
        <ele>1118.979</ele>
        <time>2011-09-15T10:36:11Z</time>
      </trkpt>
      <trkpt lat="46.65687" lon="6.11085">
        <ele>1125.41</ele>
        <time>2011-09-15T10:37:10Z</time>
      </trkpt>
      <trkpt lat="46.65666" lon="6.11137">
        <ele>1126.677</ele>
        <time>2011-09-15T10:37:34Z</time>
      </trkpt>
      <trkpt lat="46.65628" lon="6.11172">
        <ele>1129.981</ele>
        <time>2011-09-15T10:38:11Z</time>
      </trkpt>
      <trkpt lat="46.65597" lon="6.11172">
        <ele>1133.371</ele>
        <time>2011-09-15T10:38:35Z</time>
      </trkpt>
      <trkpt lat="46.65567" lon="6.11133">
        <ele>1137.241</ele>
        <time>2011-09-15T10:39:05Z</time>
      </trkpt>
      <trkpt lat="46.65515" lon="6.11098">
        <ele>1144.115</ele>
        <time>2011-09-15T10:39:49Z</time>
      </trkpt>
      <trkpt lat="46.6548" lon="6.11122">
        <ele>1146.407</ele>
        <time>2011-09-15T10:40:11Z</time>
      </trkpt>
      <trkpt lat="46.65427" lon="6.11217">
        <ele>1158.049</ele>
        <time>2011-09-15T10:41:21Z</time>
      </trkpt>
      <trkpt lat="46.65365" lon="6.11267">
        <ele>1162.147</ele>
        <time>2011-09-15T10:42:06Z</time>
      </trkpt>
      <trkpt lat="46.65326" lon="6.11254">
        <ele>1165.541</ele>
        <time>2011-09-15T10:42:37Z</time>
      </trkpt>
      <trkpt lat="46.65281" lon="6.11189">
        <ele>1168.851</ele>
        <time>2011-09-15T10:43:21Z</time>
      </trkpt>
      <trkpt lat="46.65258" lon="6.11179">
        <ele>1169.492</ele>
        <time>2011-09-15T10:43:39Z</time>
      </trkpt>
      <trkpt lat="46.65169" lon="6.11241">
        <ele>1173.369</ele>
        <time>2011-09-15T10:44:56Z</time>
      </trkpt>
      <trkpt lat="46.65126" lon="6.11252">
        <ele>1178.653</ele>
        <time>2011-09-15T10:45:32Z</time>
      </trkpt>
      <trkpt lat="46.65098" lon="6.11294">
        <ele>1182.187</ele>
        <time>2011-09-15T10:46:00Z</time>
      </trkpt>
      <trkpt lat="46.64964" lon="6.11329">
        <ele>1191.642</ele>
        <time>2011-09-15T10:47:32Z</time>
      </trkpt>
      <trkpt lat="46.64907" lon="6.11383">
        <ele>1189.126</ele>
        <time>2011-09-15T10:48:24Z</time>
      </trkpt>
      <trkpt lat="46.64875" lon="6.11345">
        <ele>1191.607</ele>
        <time>2011-09-15T10:49:01Z</time>
      </trkpt>
      <trkpt lat="46.64829" lon="6.11319">
        <ele>1191.59</ele>
        <time>2011-09-15T10:49:29Z</time>
      </trkpt>
      <trkpt lat="46.64657" lon="6.11401">
        <ele>1190.498</ele>
        <time>2011-09-15T10:51:25Z</time>
      </trkpt>
      <trkpt lat="46.64588" lon="6.11412">
        <ele>1188.482</ele>
        <time>2011-09-15T10:52:08Z</time>
      </trkpt>
      <trkpt lat="46.64534" lon="6.11459">
        <ele>1188.762</ele>
        <time>2011-09-15T10:52:58Z</time>
      </trkpt>
      <trkpt lat="46.64476" lon="6.11562">
        <ele>1185.873</ele>
        <time>2011-09-15T10:54:08Z</time>
      </trkpt>
      <trkpt lat="46.64478" lon="6.11587">
        <ele>1185.29</ele>
        <time>2011-09-15T10:54:21Z</time>
      </trkpt>
      <trkpt lat="46.64434" lon="6.11617">
        <ele>1187.824</ele>
        <time>2011-09-15T10:54:56Z</time>
      </trkpt>
      <trkpt lat="46.64314" lon="6.11641">
        <ele>1192.299</ele>
        <time>2011-09-15T10:55:44Z</time>
      </trkpt>
      <trkpt lat="46.6431" lon="6.11659">
        <ele>1194.807</ele>
        <time>2011-09-15T10:56:03Z</time>
      </trkpt>
      <trkpt lat="46.64233" lon="6.11677">
        <ele>1198.527</ele>
        <time>2011-09-15T10:56:43Z</time>
      </trkpt>
      <trkpt lat="46.64216" lon="6.117">
        <ele>1200.107</ele>
        <time>2011-09-15T10:57:08Z</time>
      </trkpt>
      <trkpt lat="46.64199" lon="6.11803">
        <ele>1207.081</ele>
        <time>2011-09-15T10:58:06Z</time>
      </trkpt>
      <trkpt lat="46.64129" lon="6.11876">
        <ele>1205.339</ele>
        <time>2011-09-15T10:59:03Z</time>
      </trkpt>
      <trkpt lat="46.64069" lon="6.11893">
        <ele>1205.243</ele>
        <time>2011-09-15T10:59:40Z</time>
      </trkpt>
      <trkpt lat="46.64011" lon="6.1189">
        <ele>1204.643</ele>
        <time>2011-09-15T11:00:11Z</time>
      </trkpt>
      <trkpt lat="46.63954" lon="6.11857">
        <ele>1203.734</ele>
        <time>2011-09-15T11:00:54Z</time>
      </trkpt>
      <trkpt lat="46.6388" lon="6.11762">
        <ele>1202.111</ele>
        <time>2011-09-15T11:02:04Z</time>
      </trkpt>
      <trkpt lat="46.63821" lon="6.1162">
        <ele>1199.595</ele>
        <time>2011-09-15T11:03:08Z</time>
      </trkpt>
      <trkpt lat="46.63757" lon="6.1129">
        <ele>1197.629</ele>
        <time>2011-09-15T11:05:47Z</time>
      </trkpt>
      <trkpt lat="46.63691" lon="6.11217">
        <ele>1196.7</ele>
        <time>2011-09-15T11:06:32Z</time>
      </trkpt>
      <trkpt lat="46.63662" lon="6.11224">
        <ele>1196.22</ele>
        <time>2011-09-15T11:07:10Z</time>
      </trkpt>
      <trkpt lat="46.63586" lon="6.1118">
        <ele>1195.607</ele>
        <time>2011-09-15T11:08:22Z</time>
      </trkpt>
      <trkpt lat="46.63571" lon="6.11151">
        <ele>1195.294</ele>
        <time>2011-09-15T11:08:38Z</time>
      </trkpt>
      <trkpt lat="46.63593" lon="6.10991">
        <ele>1195.122</ele>
        <time>2011-09-15T11:09:47Z</time>
      </trkpt>
      <trkpt lat="46.63571" lon="6.10955">
        <ele>1194.056</ele>
        <time>2011-09-15T11:10:05Z</time>
      </trkpt>
      <trkpt lat="46.63489" lon="6.10912">
        <ele>1191.686</ele>
        <time>2011-09-15T11:10:57Z</time>
      </trkpt>
      <trkpt lat="46.63447" lon="6.10922">
        <ele>1190.237</ele>
        <time>2011-09-15T11:11:35Z</time>
      </trkpt>
      <trkpt lat="46.63345" lon="6.11175">
        <ele>1191.514</ele>
        <time>2011-09-15T11:13:42Z</time>
      </trkpt>
      <trkpt lat="46.63204" lon="6.11311">
        <ele>1198.238</ele>
        <time>2011-09-15T11:15:30Z</time>
      </trkpt>
      <trkpt lat="46.63128" lon="6.11307">
        <ele>1198.445</ele>
        <time>2011-09-15T11:16:18Z</time>
      </trkpt>
      <trkpt lat="46.63068" lon="6.11073">
        <ele>1186.547</ele>
        <time>2011-09-15T11:18:13Z</time>
      </trkpt>
      <trkpt lat="46.62943" lon="6.10855">
        <ele>1181.111</ele>
        <time>2011-09-15T11:20:11Z</time>
      </trkpt>
      <trkpt lat="46.62902" lon="6.10829">
        <ele>1176.407</ele>
        <time>2011-09-15T11:20:34Z</time>
      </trkpt>
      <trkpt lat="46.62863" lon="6.10867">
        <ele>1173.176</ele>
        <time>2011-09-15T11:21:05Z</time>
      </trkpt>
      <trkpt lat="46.6283" lon="6.10865">
        <ele>1170.144</ele>
        <time>2011-09-15T11:21:23Z</time>
      </trkpt>
      <trkpt lat="46.62802" lon="6.10817">
        <ele>1164.758</ele>
        <time>2011-09-15T11:21:52Z</time>
      </trkpt>
      <trkpt lat="46.62739" lon="6.1093">
        <ele>1156.138</ele>
        <time>2011-09-15T11:22:54Z</time>
      </trkpt>
      <trkpt lat="46.62722" lon="6.10935">
        <ele>1154.649</ele>
        <time>2011-09-15T11:23:05Z</time>
      </trkpt>
      <trkpt lat="46.62656" lon="6.10928">
        <ele>1150.896</ele>
        <time>2011-09-15T11:23:43Z</time>
      </trkpt>
      <trkpt lat="46.62583" lon="6.10875">
        <ele>1150.25</ele>
        <time>2011-09-15T11:24:38Z</time>
      </trkpt>
      <trkpt lat="46.6245" lon="6.10913">
        <ele>1139.037</ele>
        <time>2011-09-15T11:25:59Z</time>
      </trkpt>
      <trkpt lat="46.62381" lon="6.10779">
        <ele>1131.849</ele>
        <time>2011-09-15T11:27:16Z</time>
      </trkpt>
      <trkpt lat="46.62271" lon="6.1051">
        <ele>1116.413</ele>
        <time>2011-09-15T11:29:47Z</time>
      </trkpt>
      <trkpt lat="46.62285" lon="6.10532">
        <ele>1117.407</ele>
        <time>2011-09-15T11:30:25Z</time>
      </trkpt>
      <trkpt lat="46.62273" lon="6.10489">
        <ele>1115.835</ele>
        <time>2011-09-15T11:30:43Z</time>
      </trkpt>
      <trkpt lat="46.62214" lon="6.10422">
        <ele>1115.343</ele>
        <time>2011-09-15T11:31:27Z</time>
      </trkpt>
      <trkpt lat="46.62179" lon="6.10459">
        <ele>1115.447</ele>
        <time>2011-09-15T11:31:58Z</time>
      </trkpt>
      <trkpt lat="46.62129" lon="6.10476">
        <ele>1113.937</ele>
        <time>2011-09-15T11:32:26Z</time>
      </trkpt>
      <trkpt lat="46.62085" lon="6.10536">
        <ele>1107.548</ele>
        <time>2011-09-15T11:33:08Z</time>
      </trkpt>
      <trkpt lat="46.62029" lon="6.10576">
        <ele>1100.465</ele>
        <time>2011-09-15T11:33:49Z</time>
      </trkpt>
      <trkpt lat="46.61962" lon="6.1056">
        <ele>1094.299</ele>
        <time>2011-09-15T11:34:32Z</time>
      </trkpt>
      <trkpt lat="46.61899" lon="6.105">
        <ele>1086.437</ele>
        <time>2011-09-15T11:35:23Z</time>
      </trkpt>
      <trkpt lat="46.61805" lon="6.1052">
        <ele>1086.849</ele>
        <time>2011-09-15T11:36:23Z</time>
      </trkpt>
      <trkpt lat="46.61753" lon="6.10504">
        <ele>1082.213</ele>
        <time>2011-09-15T11:36:59Z</time>
      </trkpt>
      <trkpt lat="46.61717" lon="6.10521">
        <ele>1079.907</ele>
        <time>2011-09-15T11:37:30Z</time>
      </trkpt>
      <trkpt lat="46.61688" lon="6.10511">
        <ele>1079.595</ele>
        <time>2011-09-15T11:37:47Z</time>
      </trkpt>
      <trkpt lat="46.61636" lon="6.10548">
        <ele>1078.693</ele>
        <time>2011-09-15T11:39:43Z</time>
      </trkpt>
      <trkpt lat="46.61569" lon="6.10556">
        <ele>1076.897</ele>
        <time>2011-09-15T11:40:25Z</time>
      </trkpt>
      <trkpt lat="46.61509" lon="6.10613">
        <ele>1076.747</ele>
        <time>2011-09-15T11:41:21Z</time>
      </trkpt>
      <trkpt lat="46.61429" lon="6.10646">
        <ele>1075.078</ele>
        <time>2011-09-15T11:42:15Z</time>
      </trkpt>
      <trkpt lat="46.61393" lon="6.1059">
        <ele>1073.165</ele>
        <time>2011-09-15T11:42:51Z</time>
      </trkpt>
      <trkpt lat="46.61343" lon="6.1055">
        <ele>1071.649</ele>
        <time>2011-09-15T11:43:20Z</time>
      </trkpt>
      <trkpt lat="46.61241" lon="6.10518">
        <ele>1075.027</ele>
        <time>2011-09-15T11:44:30Z</time>
      </trkpt>
      <trkpt lat="46.61204" lon="6.10424">
        <ele>1074.068</ele>
        <time>2011-09-15T11:45:25Z</time>
      </trkpt>
      <trkpt lat="46.61184" lon="6.10396">
        <ele>1073.214</ele>
        <time>2011-09-15T11:45:38Z</time>
      </trkpt>
      <trkpt lat="46.61152" lon="6.10381">
        <ele>1073.007</ele>
        <time>2011-09-15T11:46:01Z</time>
      </trkpt>
      <trkpt lat="46.60985" lon="6.1046">
        <ele>1071.544</ele>
        <time>2011-09-15T11:47:42Z</time>
      </trkpt>
      <trkpt lat="46.60781" lon="6.1062">
        <ele>1070.452</ele>
        <time>2011-09-15T11:50:04Z</time>
      </trkpt>
      <trkpt lat="46.60707" lon="6.10663">
        <ele>1069.846</ele>
        <time>2011-09-15T11:50:55Z</time>
      </trkpt>
      <trkpt lat="46.60657" lon="6.10673">
        <ele>1071.086</ele>
        <time>2011-09-15T11:51:27Z</time>
      </trkpt>
      <trkpt lat="46.60463" lon="6.10658">
        <ele>1067.077</ele>
        <time>2011-09-15T11:53:28Z</time>
      </trkpt>
      <trkpt lat="46.60326" lon="6.10677">
        <ele>1067.414</ele>
        <time>2011-09-15T11:54:56Z</time>
      </trkpt>
      <trkpt lat="46.60277" lon="6.10668">
        <ele>1065.828</ele>
        <time>2011-09-15T11:55:27Z</time>
      </trkpt>
      <trkpt lat="46.60095" lon="6.10704">
        <ele>1065.751</ele>
        <time>2011-09-15T11:57:26Z</time>
      </trkpt>
      <trkpt lat="46.60079" lon="6.10723">
        <ele>1065.301</ele>
        <time>2011-09-15T11:57:40Z</time>
      </trkpt>
      <trkpt lat="46.60057" lon="6.10872">
        <ele>1065.411</ele>
        <time>2011-09-15T11:58:44Z</time>
      </trkpt>
      <trkpt lat="46.59996" lon="6.11078">
        <ele>1069.707</ele>
        <time>2011-09-15T12:00:32Z</time>
      </trkpt>
      <trkpt lat="46.59954" lon="6.11289">
        <ele>1083.167</ele>
        <time>2011-09-15T12:02:17Z</time>
      </trkpt>
      <trkpt lat="46.59904" lon="6.11389">
        <ele>1080.615</ele>
        <time>2011-09-15T12:03:22Z</time>
      </trkpt>
      <trkpt lat="46.59797" lon="6.11402">
        <ele>1084.929</ele>
        <time>2011-09-15T12:04:36Z</time>
      </trkpt>
      <trkpt lat="46.59782" lon="6.11385">
        <ele>1084.259</ele>
        <time>2011-09-15T12:04:54Z</time>
      </trkpt>
      <trkpt lat="46.59816" lon="6.11411">
        <ele>1082.47</ele>
        <time>2011-09-15T12:53:42Z</time>
      </trkpt>
      <trkpt lat="46.59828" lon="6.11402">
        <ele>1083.757</ele>
        <time>2011-09-15T12:53:52Z</time>
      </trkpt>
      <trkpt lat="46.59796" lon="6.11432">
        <ele>1085.221</ele>
        <time>2011-09-15T12:55:37Z</time>
      </trkpt>
      <trkpt lat="46.59735" lon="6.11303">
        <ele>1080.888</ele>
        <time>2011-09-15T12:57:00Z</time>
      </trkpt>
      <trkpt lat="46.5969" lon="6.11303">
        <ele>1078.924</ele>
        <time>2011-09-15T12:57:34Z</time>
      </trkpt>
      <trkpt lat="46.59593" lon="6.11493">
        <ele>1072.226</ele>
        <time>2011-09-15T12:59:23Z</time>
      </trkpt>
      <trkpt lat="46.59514" lon="6.11475">
        <ele>1073.407</ele>
        <time>2011-09-15T13:00:23Z</time>
      </trkpt>
      <trkpt lat="46.59378" lon="6.11497">
        <ele>1073.96</ele>
        <time>2011-09-15T13:03:06Z</time>
      </trkpt>
      <trkpt lat="46.59248" lon="6.11678">
        <ele>1077.938</ele>
        <time>2011-09-15T13:05:11Z</time>
      </trkpt>
      <trkpt lat="46.59189" lon="6.11867">
        <ele>1088.832</ele>
        <time>2011-09-15T13:06:56Z</time>
      </trkpt>
      <trkpt lat="46.59131" lon="6.11951">
        <ele>1106.642</ele>
        <time>2011-09-15T13:08:09Z</time>
      </trkpt>
      <trkpt lat="46.59163" lon="6.11996">
        <ele>1110.263</ele>
        <time>2011-09-15T13:09:42Z</time>
      </trkpt>
      <trkpt lat="46.59135" lon="6.12056">
        <ele>1115.09</ele>
        <time>2011-09-15T13:10:24Z</time>
      </trkpt>
      <trkpt lat="46.59192" lon="6.12071">
        <ele>1120.824</ele>
        <time>2011-09-15T13:11:03Z</time>
      </trkpt>
      <trkpt lat="46.59248" lon="6.12175">
        <ele>1130.129</ele>
        <time>2011-09-15T13:12:18Z</time>
      </trkpt>
      <trkpt lat="46.59407" lon="6.12269">
        <ele>1134.7</ele>
        <time>2011-09-15T13:14:30Z</time>
      </trkpt>
      <trkpt lat="46.59461" lon="6.1233">
        <ele>1141.82</ele>
        <time>2011-09-15T13:15:28Z</time>
      </trkpt>
      <trkpt lat="46.59531" lon="6.1238">
        <ele>1145.107</ele>
        <time>2011-09-15T13:16:22Z</time>
      </trkpt>
      <trkpt lat="46.59476" lon="6.12583">
        <ele>1171.954</ele>
        <time>2011-09-15T13:18:54Z</time>
      </trkpt>
      <trkpt lat="46.59456" lon="6.12567">
        <ele>1173.962</ele>
        <time>2011-09-15T13:19:33Z</time>
      </trkpt>
      <trkpt lat="46.59452" lon="6.12518">
        <ele>1162.186</ele>
        <time>2011-09-15T13:20:39Z</time>
      </trkpt>
      <trkpt lat="46.59413" lon="6.1247">
        <ele>1161.756</ele>
        <time>2011-09-15T13:21:38Z</time>
      </trkpt>
      <trkpt lat="46.59404" lon="6.12518">
        <ele>1171.987</ele>
        <time>2011-09-15T13:22:14Z</time>
      </trkpt>
      <trkpt lat="46.59364" lon="6.12538">
        <ele>1178.094</ele>
        <time>2011-09-15T13:23:33Z</time>
      </trkpt>
      <trkpt lat="46.59378" lon="6.1254">
        <ele>1184.798</ele>
        <time>2011-09-15T13:23:58Z</time>
      </trkpt>
      <trkpt lat="46.59366" lon="6.12548">
        <ele>1190.034</ele>
        <time>2011-09-15T13:24:33Z</time>
      </trkpt>
      <trkpt lat="46.59378" lon="6.12561">
        <ele>1194.055</ele>
        <time>2011-09-15T13:24:55Z</time>
      </trkpt>
      <trkpt lat="46.59335" lon="6.12603">
        <ele>1221.21</ele>
        <time>2011-09-15T13:27:23Z</time>
      </trkpt>
      <trkpt lat="46.59322" lon="6.12595">
        <ele>1226.107</ele>
        <time>2011-09-15T13:27:47Z</time>
      </trkpt>
      <trkpt lat="46.59313" lon="6.12605">
        <ele>1229.255</ele>
        <time>2011-09-15T13:27:59Z</time>
      </trkpt>
      <trkpt lat="46.59351" lon="6.12648">
        <ele>1244.223</ele>
        <time>2011-09-15T13:29:12Z</time>
      </trkpt>
      <trkpt lat="46.59321" lon="6.12654">
        <ele>1254.077</ele>
        <time>2011-09-15T13:29:56Z</time>
      </trkpt>
      <trkpt lat="46.59316" lon="6.12676">
        <ele>1261.637</ele>
        <time>2011-09-15T13:30:28Z</time>
      </trkpt>
      <trkpt lat="46.5929" lon="6.12663">
        <ele>1269.458</ele>
        <time>2011-09-15T13:31:07Z</time>
      </trkpt>
      <trkpt lat="46.59317" lon="6.12708">
        <ele>1286.285</ele>
        <time>2011-09-15T13:32:23Z</time>
      </trkpt>
      <trkpt lat="46.59335" lon="6.12713">
        <ele>1291.719</ele>
        <time>2011-09-15T13:32:47Z</time>
      </trkpt>
      <trkpt lat="46.59303" lon="6.12718">
        <ele>1296.496</ele>
        <time>2011-09-15T13:33:44Z</time>
      </trkpt>
      <trkpt lat="46.59229" lon="6.12659">
        <ele>1303.231</ele>
        <time>2011-09-15T13:35:19Z</time>
      </trkpt>
      <trkpt lat="46.59199" lon="6.12671">
        <ele>1301.724</ele>
        <time>2011-09-15T13:35:47Z</time>
      </trkpt>
      <trkpt lat="46.59181" lon="6.12611">
        <ele>1302.107</ele>
        <time>2011-09-15T13:37:08Z</time>
      </trkpt>
      <trkpt lat="46.59176" lon="6.1262">
        <ele>1307.351</ele>
        <time>2011-09-15T13:37:21Z</time>
      </trkpt>
      <trkpt lat="46.5915" lon="6.12609">
        <ele>1308.579</ele>
        <time>2011-09-15T13:37:57Z</time>
      </trkpt>
      <trkpt lat="46.5915" lon="6.12581">
        <ele>1308.163</ele>
        <time>2011-09-15T13:38:37Z</time>
      </trkpt>
      <trkpt lat="46.59122" lon="6.12572">
        <ele>1310.013</ele>
        <time>2011-09-15T13:45:38Z</time>
      </trkpt>
      <trkpt lat="46.5901" lon="6.12476">
        <ele>1312.614</ele>
        <time>2011-09-15T13:47:17Z</time>
      </trkpt>
      <trkpt lat="46.58999" lon="6.1247">
        <ele>1314.951</ele>
        <time>2011-09-15T13:47:38Z</time>
      </trkpt>
      <trkpt lat="46.58966" lon="6.12495">
        <ele>1316.475</ele>
        <time>2011-09-15T13:48:11Z</time>
      </trkpt>
      <trkpt lat="46.58929" lon="6.12479">
        <ele>1320.283</ele>
        <time>2011-09-15T13:48:48Z</time>
      </trkpt>
      <trkpt lat="46.58861" lon="6.12395">
        <ele>1320.725</ele>
        <time>2011-09-15T13:49:57Z</time>
      </trkpt>
      <trkpt lat="46.58855" lon="6.12364">
        <ele>1319.217</ele>
        <time>2011-09-15T13:50:18Z</time>
      </trkpt>
      <trkpt lat="46.58821" lon="6.12317">
        <ele>1320.207</ele>
        <time>2011-09-15T13:50:45Z</time>
      </trkpt>
      <trkpt lat="46.58744" lon="6.12278">
        <ele>1321.03</ele>
        <time>2011-09-15T13:51:52Z</time>
      </trkpt>
      <trkpt lat="46.5871" lon="6.12304">
        <ele>1322.298</ele>
        <time>2011-09-15T13:52:27Z</time>
      </trkpt>
      <trkpt lat="46.58673" lon="6.12289">
        <ele>1322.252</ele>
        <time>2011-09-15T13:52:56Z</time>
      </trkpt>
      <trkpt lat="46.58673" lon="6.12219">
        <ele>1320.982</ele>
        <time>2011-09-15T13:53:39Z</time>
      </trkpt>
      <trkpt lat="46.58636" lon="6.12193">
        <ele>1323.153</ele>
        <time>2011-09-15T13:54:13Z</time>
      </trkpt>
      <trkpt lat="46.58621" lon="6.12163">
        <ele>1322.48</ele>
        <time>2011-09-15T13:54:56Z</time>
      </trkpt>
      <trkpt lat="46.58584" lon="6.12201">
        <ele>1320.884</ele>
        <time>2011-09-15T13:55:29Z</time>
      </trkpt>
      <trkpt lat="46.58535" lon="6.12173">
        <ele>1320.129</ele>
        <time>2011-09-15T13:56:10Z</time>
      </trkpt>
      <trkpt lat="46.58491" lon="6.12187">
        <ele>1320.6</ele>
        <time>2011-09-15T13:56:45Z</time>
      </trkpt>
      <trkpt lat="46.58437" lon="6.12124">
        <ele>1323.42</ele>
        <time>2011-09-15T13:57:39Z</time>
      </trkpt>
      <trkpt lat="46.58399" lon="6.12126">
        <ele>1323.407</ele>
        <time>2011-09-15T13:58:12Z</time>
      </trkpt>
      <trkpt lat="46.58397" lon="6.121">
        <ele>1319.164</ele>
        <time>2011-09-15T13:58:28Z</time>
      </trkpt>
      <trkpt lat="46.58362" lon="6.12075">
        <ele>1320.592</ele>
        <time>2011-09-15T13:58:59Z</time>
      </trkpt>
      <trkpt lat="46.58314" lon="6.1207">
        <ele>1315.176</ele>
        <time>2011-09-15T13:59:36Z</time>
      </trkpt>
      <trkpt lat="46.58331" lon="6.11976">
        <ele>1308.346</ele>
        <time>2011-09-15T14:00:23Z</time>
      </trkpt>
      <trkpt lat="46.58304" lon="6.11873">
        <ele>1301.477</ele>
        <time>2011-09-15T14:01:22Z</time>
      </trkpt>
      <trkpt lat="46.58271" lon="6.11835">
        <ele>1303.334</ele>
        <time>2011-09-15T14:01:58Z</time>
      </trkpt>
      <trkpt lat="46.58261" lon="6.11842">
        <ele>1309.638</ele>
        <time>2011-09-15T14:02:16Z</time>
      </trkpt>
      <trkpt lat="46.58228" lon="6.1176">
        <ele>1324.293</ele>
        <time>2011-09-15T14:03:41Z</time>
      </trkpt>
      <trkpt lat="46.58163" lon="6.11718">
        <ele>1325.365</ele>
        <time>2011-09-15T14:04:30Z</time>
      </trkpt>
      <trkpt lat="46.58119" lon="6.11723">
        <ele>1331.821</ele>
        <time>2011-09-15T14:05:14Z</time>
      </trkpt>
      <trkpt lat="46.58097" lon="6.11604">
        <ele>1332.507</ele>
        <time>2011-09-15T14:06:21Z</time>
      </trkpt>
      <trkpt lat="46.58025" lon="6.11532">
        <ele>1326.081</ele>
        <time>2011-09-15T14:07:23Z</time>
      </trkpt>
      <trkpt lat="46.58013" lon="6.1144">
        <ele>1315.739</ele>
        <time>2011-09-15T14:08:05Z</time>
      </trkpt>
      <trkpt lat="46.57976" lon="6.11403">
        <ele>1307.883</ele>
        <time>2011-09-15T14:08:38Z</time>
      </trkpt>
      <trkpt lat="46.57925" lon="6.11307">
        <ele>1302.433</ele>
        <time>2011-09-15T14:09:44Z</time>
      </trkpt>
      <trkpt lat="46.57945" lon="6.1127">
        <ele>1300.914</ele>
        <time>2011-09-15T14:10:21Z</time>
      </trkpt>
      <trkpt lat="46.57927" lon="6.11271">
        <ele>1301.361</ele>
        <time>2011-09-15T14:10:40Z</time>
      </trkpt>
      <trkpt lat="46.57906" lon="6.11313">
        <ele>1298.255</ele>
        <time>2011-09-15T14:11:11Z</time>
      </trkpt>
      <trkpt lat="46.57875" lon="6.11294">
        <ele>1297.841</ele>
        <time>2011-09-15T14:11:36Z</time>
      </trkpt>
      <trkpt lat="46.57812" lon="6.11219">
        <ele>1301.181</ele>
        <time>2011-09-15T14:12:37Z</time>
      </trkpt>
      <trkpt lat="46.57767" lon="6.1112">
        <ele>1301.409</ele>
        <time>2011-09-15T14:13:37Z</time>
      </trkpt>
      <trkpt lat="46.57712" lon="6.11093">
        <ele>1297.407</ele>
        <time>2011-09-15T14:14:12Z</time>
      </trkpt>
      <trkpt lat="46.57681" lon="6.11048">
        <ele>1297.976</ele>
        <time>2011-09-15T14:14:48Z</time>
      </trkpt>
      <trkpt lat="46.57628" lon="6.11026">
        <ele>1296.284</ele>
        <time>2011-09-15T14:15:43Z</time>
      </trkpt>
      <trkpt lat="46.5763" lon="6.10985">
        <ele>1288.838</ele>
        <time>2011-09-15T14:16:24Z</time>
      </trkpt>
      <trkpt lat="46.57607" lon="6.10984">
        <ele>1286.528</ele>
        <time>2011-09-15T14:16:43Z</time>
      </trkpt>
      <trkpt lat="46.57546" lon="6.10935">
        <ele>1289.199</ele>
        <time>2011-09-15T14:17:41Z</time>
      </trkpt>
      <trkpt lat="46.57495" lon="6.10848">
        <ele>1282.446</ele>
        <time>2011-09-15T14:18:39Z</time>
      </trkpt>
      <trkpt lat="46.57408" lon="6.10757">
        <ele>1272.19</ele>
        <time>2011-09-15T14:19:59Z</time>
      </trkpt>
      <trkpt lat="46.57364" lon="6.10752">
        <ele>1270.711</ele>
        <time>2011-09-15T14:20:25Z</time>
      </trkpt>
      <trkpt lat="46.5733" lon="6.10729">
        <ele>1267.321</ele>
        <time>2011-09-15T14:20:47Z</time>
      </trkpt>
      <trkpt lat="46.57345" lon="6.10688">
        <ele>1264.303</ele>
        <time>2011-09-15T14:21:31Z</time>
      </trkpt>
      <trkpt lat="46.57419" lon="6.10644">
        <ele>1263.607</ele>
        <time>2011-09-15T14:24:51Z</time>
      </trkpt>
      <trkpt lat="46.57385" lon="6.10634">
        <ele>1307.993</ele>
        <time>2011-09-15T14:26:00Z</time>
      </trkpt>
      <trkpt lat="46.57329" lon="6.10529">
        <ele>1298.551</ele>
        <time>2011-09-15T14:26:59Z</time>
      </trkpt>
      <trkpt lat="46.573" lon="6.10416">
        <ele>1266.515</ele>
        <time>2011-09-15T14:28:31Z</time>
      </trkpt>
      <trkpt lat="46.57315" lon="6.104">
        <ele>1268.315</ele>
        <time>2011-09-15T14:29:06Z</time>
      </trkpt>
      <trkpt lat="46.57291" lon="6.10414">
        <ele>1265.556</ele>
        <time>2011-09-15T14:29:59Z</time>
      </trkpt>
      <trkpt lat="46.57135" lon="6.10364">
        <ele>1251.233</ele>
        <time>2011-09-15T14:32:08Z</time>
      </trkpt>
      <trkpt lat="46.57106" lon="6.10344">
        <ele>1255.417</ele>
        <time>2011-09-15T14:32:35Z</time>
      </trkpt>
      <trkpt lat="46.57063" lon="6.10349">
        <ele>1259.065</ele>
        <time>2011-09-15T14:33:12Z</time>
      </trkpt>
      <trkpt lat="46.57056" lon="6.10326">
        <ele>1262.168</ele>
        <time>2011-09-15T14:33:30Z</time>
      </trkpt>
      <trkpt lat="46.57011" lon="6.10287">
        <ele>1262.214</ele>
        <time>2011-09-15T14:34:09Z</time>
      </trkpt>
      <trkpt lat="46.56918" lon="6.10236">
        <ele>1252.607</ele>
        <time>2011-09-15T14:35:20Z</time>
      </trkpt>
      <trkpt lat="46.56837" lon="6.10111">
        <ele>1256.448</ele>
        <time>2011-09-15T14:36:47Z</time>
      </trkpt>
      <trkpt lat="46.56806" lon="6.10033">
        <ele>1257.916</ele>
        <time>2011-09-15T14:37:34Z</time>
      </trkpt>
      <trkpt lat="46.56684" lon="6.0998">
        <ele>1249.51</ele>
        <time>2011-09-15T14:39:04Z</time>
      </trkpt>
      <trkpt lat="46.56651" lon="6.10021">
        <ele>1253.73</ele>
        <time>2011-09-15T14:39:36Z</time>
      </trkpt>
      <trkpt lat="46.56652" lon="6.1009">
        <ele>1263.151</ele>
        <time>2011-09-15T14:40:17Z</time>
      </trkpt>
      <trkpt lat="46.56637" lon="6.10107">
        <ele>1265.668</ele>
        <time>2011-09-15T14:40:33Z</time>
      </trkpt>
      <trkpt lat="46.56615" lon="6.10099">
        <ele>1271.172</ele>
        <time>2011-09-15T14:40:59Z</time>
      </trkpt>
      <trkpt lat="46.56594" lon="6.10045">
        <ele>1277.511</ele>
        <time>2011-09-15T14:41:42Z</time>
      </trkpt>
      <trkpt lat="46.56577" lon="6.1004">
        <ele>1278.921</ele>
        <time>2011-09-15T14:41:57Z</time>
      </trkpt>
      <trkpt lat="46.56533" lon="6.10069">
        <ele>1279.903</ele>
        <time>2011-09-15T14:42:32Z</time>
      </trkpt>
      <trkpt lat="46.56517" lon="6.10034">
        <ele>1276.907</ele>
        <time>2011-09-15T14:42:57Z</time>
      </trkpt>
      <trkpt lat="46.56485" lon="6.10026">
        <ele>1277.763</ele>
        <time>2011-09-15T14:43:19Z</time>
      </trkpt>
      <trkpt lat="46.56443" lon="6.10074">
        <ele>1272.781</ele>
        <time>2011-09-15T14:43:53Z</time>
      </trkpt>
      <trkpt lat="46.56435" lon="6.10193">
        <ele>1266.785</ele>
        <time>2011-09-15T14:44:52Z</time>
      </trkpt>
      <trkpt lat="46.56406" lon="6.10207">
        <ele>1264.735</ele>
        <time>2011-09-15T14:45:10Z</time>
      </trkpt>
      <trkpt lat="46.56389" lon="6.10266">
        <ele>1256.486</ele>
        <time>2011-09-15T14:45:44Z</time>
      </trkpt>
      <trkpt lat="46.56339" lon="6.103">
        <ele>1253.813</ele>
        <time>2011-09-15T14:46:28Z</time>
      </trkpt>
      <trkpt lat="46.56293" lon="6.1024">
        <ele>1252.717</ele>
        <time>2011-09-15T14:47:10Z</time>
      </trkpt>
      <trkpt lat="46.56236" lon="6.10233">
        <ele>1248.812</ele>
        <time>2011-09-15T14:47:45Z</time>
      </trkpt>
      <trkpt lat="46.56159" lon="6.10159">
        <ele>1239.132</ele>
        <time>2011-09-15T14:48:46Z</time>
      </trkpt>
      <trkpt lat="46.56136" lon="6.10104">
        <ele>1241.805</ele>
        <time>2011-09-15T14:49:15Z</time>
      </trkpt>
      <trkpt lat="46.56117" lon="6.09956">
        <ele>1245.907</ele>
        <time>2011-09-15T14:50:36Z</time>
      </trkpt>
      <trkpt lat="46.56082" lon="6.09916">
        <ele>1243.853</ele>
        <time>2011-09-15T14:51:22Z</time>
      </trkpt>
      <trkpt lat="46.5603" lon="6.09899">
        <ele>1247.351</ele>
        <time>2011-09-15T14:51:55Z</time>
      </trkpt>
      <trkpt lat="46.56007" lon="6.09803">
        <ele>1248.415</ele>
        <time>2011-09-15T14:52:42Z</time>
      </trkpt>
      <trkpt lat="46.5598" lon="6.09758">
        <ele>1245.655</ele>
        <time>2011-09-15T14:53:10Z</time>
      </trkpt>
      <trkpt lat="46.55917" lon="6.09744">
        <ele>1240.876</ele>
        <time>2011-09-15T14:53:46Z</time>
      </trkpt>
      <trkpt lat="46.55905" lon="6.09723">
        <ele>1238.963</ele>
        <time>2011-09-15T14:53:58Z</time>
      </trkpt>
      <trkpt lat="46.55912" lon="6.09628">
        <ele>1235.487</ele>
        <time>2011-09-15T14:54:40Z</time>
      </trkpt>
      <trkpt lat="46.55874" lon="6.0955">
        <ele>1233.517</ele>
        <time>2011-09-15T14:55:23Z</time>
      </trkpt>
      <trkpt lat="46.55861" lon="6.09548">
        <ele>1233.487</ele>
        <time>2011-09-15T14:55:34Z</time>
      </trkpt>
      <trkpt lat="46.55749" lon="6.09646">
        <ele>1226.415</ele>
        <time>2011-09-15T14:57:00Z</time>
      </trkpt>
      <trkpt lat="46.55751" lon="6.09708">
        <ele>1224.307</ele>
        <time>2011-09-15T14:57:29Z</time>
      </trkpt>
      <trkpt lat="46.55678" lon="6.09802">
        <ele>1221.673</ele>
        <time>2011-09-15T14:58:33Z</time>
      </trkpt>
      <trkpt lat="46.55712" lon="6.099">
        <ele>1218.351</ele>
        <time>2011-09-15T14:59:20Z</time>
      </trkpt>
      <trkpt lat="46.55709" lon="6.09933">
        <ele>1216.545</ele>
        <time>2011-09-15T14:59:33Z</time>
      </trkpt>
      <trkpt lat="46.5567" lon="6.09984">
        <ele>1213.595</ele>
        <time>2011-09-15T15:00:10Z</time>
      </trkpt>
      <trkpt lat="46.55619" lon="6.10103">
        <ele>1209.766</ele>
        <time>2011-09-15T15:01:17Z</time>
      </trkpt>
      <trkpt lat="46.55515" lon="6.10197">
        <ele>1209.223</ele>
        <time>2011-09-15T15:02:33Z</time>
      </trkpt>
      <trkpt lat="46.55511" lon="6.10292">
        <ele>1208.437</ele>
        <time>2011-09-15T15:03:17Z</time>
      </trkpt>
      <trkpt lat="46.55473" lon="6.10396">
        <ele>1208.962</ele>
        <time>2011-09-15T15:04:10Z</time>
      </trkpt>
      <trkpt lat="46.55351" lon="6.10515">
        <ele>1207.983</ele>
        <time>2011-09-15T15:05:44Z</time>
      </trkpt>
      <trkpt lat="46.55365" lon="6.10564">
        <ele>1209.111</ele>
        <time>2011-09-15T15:06:08Z</time>
      </trkpt>
      <trkpt lat="46.55426" lon="6.10591">
        <ele>1210.707</ele>
        <time>2011-09-15T15:06:56Z</time>
      </trkpt>
      <trkpt lat="46.55493" lon="6.1067">
        <ele>1212.588</ele>
        <time>2011-09-15T15:07:52Z</time>
      </trkpt>
      <trkpt lat="46.55505" lon="6.10707">
        <ele>1212.546</ele>
        <time>2011-09-15T15:08:10Z</time>
      </trkpt>
      <trkpt lat="46.55491" lon="6.10786">
        <ele>1212.49</ele>
        <time>2011-09-15T15:08:47Z</time>
      </trkpt>
      <trkpt lat="46.55409" lon="6.10929">
        <ele>1212.49</ele>
        <time>2011-09-15T15:10:09Z</time>
      </trkpt>
      <trkpt lat="46.55403" lon="6.10995">
        <ele>1212.871</ele>
        <time>2011-09-15T15:10:47Z</time>
      </trkpt>
      <trkpt lat="46.55417" lon="6.1101">
        <ele>1212.488</ele>
        <time>2011-09-15T15:11:32Z</time>
      </trkpt>
      <trkpt lat="46.55352" lon="6.10982">
        <ele>1210.522</ele>
        <time>2011-09-15T15:12:14Z</time>
      </trkpt>
      <trkpt lat="46.55313" lon="6.10887">
        <ele>1214.065</ele>
        <time>2011-09-15T15:13:07Z</time>
      </trkpt>
      <trkpt lat="46.55259" lon="6.10933">
        <ele>1217.568</ele>
        <time>2011-09-15T15:13:47Z</time>
      </trkpt>
      <trkpt lat="46.55215" lon="6.1092">
        <ele>1222.414</ele>
        <time>2011-09-15T15:14:22Z</time>
      </trkpt>
      <trkpt lat="46.55177" lon="6.10928">
        <ele>1227.407</ele>
        <time>2011-09-15T15:14:52Z</time>
      </trkpt>
      <trkpt lat="46.55141" lon="6.10892">
        <ele>1229.918</ele>
        <time>2011-09-15T15:15:21Z</time>
      </trkpt>
      <trkpt lat="46.55112" lon="6.10803">
        <ele>1231.246</ele>
        <time>2011-09-15T15:16:08Z</time>
      </trkpt>
      <trkpt lat="46.55089" lon="6.10791">
        <ele>1228.73</ele>
        <time>2011-09-15T15:16:26Z</time>
      </trkpt>
      <trkpt lat="46.5506" lon="6.10797">
        <ele>1228.25</ele>
        <time>2011-09-15T15:16:48Z</time>
      </trkpt>
      <trkpt lat="46.55047" lon="6.10783">
        <ele>1227.561</ele>
        <time>2011-09-15T15:17:00Z</time>
      </trkpt>
      <trkpt lat="46.55022" lon="6.10731">
        <ele>1227.568</ele>
        <time>2011-09-15T15:17:26Z</time>
      </trkpt>
      <trkpt lat="46.55031" lon="6.10635">
        <ele>1225.672</ele>
        <time>2011-09-15T15:18:14Z</time>
      </trkpt>
      <trkpt lat="46.54987" lon="6.10516">
        <ele>1225.251</ele>
        <time>2011-09-15T15:19:16Z</time>
      </trkpt>
      <trkpt lat="46.5494" lon="6.1046">
        <ele>1226.001</ele>
        <time>2011-09-15T15:19:53Z</time>
      </trkpt>
      <trkpt lat="46.54888" lon="6.10342">
        <ele>1222.011</ele>
        <time>2011-09-15T15:20:54Z</time>
      </trkpt>
      <trkpt lat="46.54741" lon="6.10157">
        <ele>1228.507</ele>
        <time>2011-09-15T15:23:04Z</time>
      </trkpt>
      <trkpt lat="46.54616" lon="6.09901">
        <ele>1220.167</ele>
        <time>2011-09-15T15:25:26Z</time>
      </trkpt>
      <trkpt lat="46.54604" lon="6.09842">
        <ele>1219.075</ele>
        <time>2011-09-15T15:25:56Z</time>
      </trkpt>
      <trkpt lat="46.5455" lon="6.0973">
        <ele>1217.229</ele>
        <time>2011-09-15T15:27:47Z</time>
      </trkpt>
      <trkpt lat="46.54554" lon="6.09759">
        <ele>1218.279</ele>
        <time>2011-09-15T15:28:04Z</time>
      </trkpt>
      <trkpt lat="46.54544" lon="6.09757">
        <ele>1216.71</ele>
        <time>2011-09-15T15:28:12Z</time>
      </trkpt>
      <trkpt lat="46.54488" lon="6.09882">
        <ele>1212.167</ele>
        <time>2011-09-15T15:29:21Z</time>
      </trkpt>
      <trkpt lat="46.54433" lon="6.09923">
        <ele>1209.321</ele>
        <time>2011-09-15T15:30:01Z</time>
      </trkpt>
      <trkpt lat="46.54414" lon="6.09984">
        <ele>1209.648</ele>
        <time>2011-09-15T15:30:32Z</time>
      </trkpt>
      <trkpt lat="46.54373" lon="6.10046">
        <ele>1209.561</ele>
        <time>2011-09-15T15:31:10Z</time>
      </trkpt>
      <trkpt lat="46.54304" lon="6.10106">
        <ele>1202.617</ele>
        <time>2011-09-15T15:32:04Z</time>
      </trkpt>
      <trkpt lat="46.54162" lon="6.10181">
        <ele>1198.507</ele>
        <time>2011-09-15T15:33:44Z</time>
      </trkpt>
      <trkpt lat="46.53961" lon="6.1025">
        <ele>1207.496</ele>
        <time>2011-09-15T15:36:02Z</time>
      </trkpt>
      <trkpt lat="46.53848" lon="6.102">
        <ele>1211.094</ele>
        <time>2011-09-15T15:37:16Z</time>
      </trkpt>
      <trkpt lat="46.53793" lon="6.10147">
        <ele>1211.398</ele>
        <time>2011-09-15T15:37:59Z</time>
      </trkpt>
      <trkpt lat="46.53713" lon="6.10155">
        <ele>1210.198</ele>
        <time>2011-09-15T15:38:52Z</time>
      </trkpt>
      <trkpt lat="46.5366" lon="6.10182">
        <ele>1213.159</ele>
        <time>2011-09-15T15:39:31Z</time>
      </trkpt>
      <trkpt lat="46.53611" lon="6.10179">
        <ele>1213.386</ele>
        <time>2011-09-15T15:40:18Z</time>
      </trkpt>
      <trkpt lat="46.53614" lon="6.10194">
        <ele>1214.79</ele>
        <time>2011-09-15T15:42:09Z</time>
      </trkpt>
      <trkpt lat="46.53571" lon="6.10108">
        <ele>1217.613</ele>
        <time>2011-09-15T15:51:14Z</time>
      </trkpt>
      <trkpt lat="46.53537" lon="6.10074">
        <ele>1220.043</ele>
        <time>2011-09-15T15:51:43Z</time>
      </trkpt>
      <trkpt lat="46.53425" lon="6.10088">
        <ele>1223.407</ele>
        <time>2011-09-15T15:52:58Z</time>
      </trkpt>
      <trkpt lat="46.53391" lon="6.10074">
        <ele>1222.407</ele>
        <time>2011-09-15T15:53:20Z</time>
      </trkpt>
      <trkpt lat="46.53352" lon="6.09968">
        <ele>1221.613</ele>
        <time>2011-09-15T15:54:16Z</time>
      </trkpt>
      <trkpt lat="46.53235" lon="6.09741">
        <ele>1228.411</ele>
        <time>2011-09-15T15:56:24Z</time>
      </trkpt>
      <trkpt lat="46.53071" lon="6.09514">
        <ele>1238.135</ele>
        <time>2011-09-15T15:58:54Z</time>
      </trkpt>
      <trkpt lat="46.52887" lon="6.09346">
        <ele>1253.185</ele>
        <time>2011-09-15T16:01:44Z</time>
      </trkpt>
      <trkpt lat="46.52832" lon="6.09191">
        <ele>1245.066</ele>
        <time>2011-09-15T16:03:03Z</time>
      </trkpt>
      <trkpt lat="46.52724" lon="6.09071">
        <ele>1240.953</ele>
        <time>2011-09-15T16:04:30Z</time>
      </trkpt>
      <trkpt lat="46.52632" lon="6.08941">
        <ele>1230.797</ele>
        <time>2011-09-15T16:05:51Z</time>
      </trkpt>
      <trkpt lat="46.52569" lon="6.08898">
        <ele>1234.247</ele>
        <time>2011-09-15T16:06:37Z</time>
      </trkpt>
      <trkpt lat="46.5247" lon="6.08756">
        <ele>1237.529</ele>
        <time>2011-09-15T16:08:09Z</time>
      </trkpt>
      <trkpt lat="46.52423" lon="6.08631">
        <ele>1243.421</ele>
        <time>2011-09-15T16:09:22Z</time>
      </trkpt>
      <trkpt lat="46.52214" lon="6.08363">
        <ele>1240.307</ele>
        <time>2011-09-15T16:12:13Z</time>
      </trkpt>
      <trkpt lat="46.52158" lon="6.08315">
        <ele>1237.826</ele>
        <time>2011-09-15T16:12:56Z</time>
      </trkpt>
      <trkpt lat="46.52139" lon="6.08258">
        <ele>1234.434</ele>
        <time>2011-09-15T16:13:27Z</time>
      </trkpt>
      <trkpt lat="46.5207" lon="6.08211">
        <ele>1231.358</ele>
        <time>2011-09-15T16:14:09Z</time>
      </trkpt>
      <trkpt lat="46.5203" lon="6.0811">
        <ele>1230.628</ele>
        <time>2011-09-15T16:15:05Z</time>
      </trkpt>
      <trkpt lat="46.51895" lon="6.07898">
        <ele>1234.769</ele>
        <time>2011-09-15T16:17:12Z</time>
      </trkpt>
      <trkpt lat="46.51876" lon="6.07821">
        <ele>1239.556</ele>
        <time>2011-09-15T16:17:54Z</time>
      </trkpt>
      <trkpt lat="46.51862" lon="6.0781">
        <ele>1239.91</ele>
        <time>2011-09-15T16:18:03Z</time>
      </trkpt>
      <trkpt lat="46.51837" lon="6.07822">
        <ele>1241.579</ele>
        <time>2011-09-15T16:18:21Z</time>
      </trkpt>
      <trkpt lat="46.51829" lon="6.07867">
        <ele>1242.805</ele>
        <time>2011-09-15T16:18:46Z</time>
      </trkpt>
      <trkpt lat="46.51791" lon="6.07897">
        <ele>1245.225</ele>
        <time>2011-09-15T16:19:14Z</time>
      </trkpt>
      <trkpt lat="46.51631" lon="6.07806">
        <ele>1259.307</ele>
        <time>2011-09-15T16:21:15Z</time>
      </trkpt>
      <trkpt lat="46.51616" lon="6.07812">
        <ele>1261.399</ele>
        <time>2011-09-15T16:21:26Z</time>
      </trkpt>
      <trkpt lat="46.51613" lon="6.07899">
        <ele>1265.367</ele>
        <time>2011-09-15T16:22:10Z</time>
      </trkpt>
      <trkpt lat="46.51574" lon="6.07981">
        <ele>1266.841</ele>
        <time>2011-09-15T16:22:53Z</time>
      </trkpt>
      <trkpt lat="46.51537" lon="6.07983">
        <ele>1266.661</ele>
        <time>2011-09-15T16:23:16Z</time>
      </trkpt>
      <trkpt lat="46.51497" lon="6.07944">
        <ele>1265.222</ele>
        <time>2011-09-15T16:23:50Z</time>
      </trkpt>
      <trkpt lat="46.51461" lon="6.07886">
        <ele>1267.229</ele>
        <time>2011-09-15T16:24:32Z</time>
      </trkpt>
      <trkpt lat="46.51401" lon="6.07838">
        <ele>1268.243</ele>
        <time>2011-09-15T16:25:14Z</time>
      </trkpt>
      <trkpt lat="46.51387" lon="6.07786">
        <ele>1269.962</ele>
        <time>2011-09-15T16:25:41Z</time>
      </trkpt>
      <trkpt lat="46.51329" lon="6.07703">
        <ele>1268.783</ele>
        <time>2011-09-15T16:26:37Z</time>
      </trkpt>
      <trkpt lat="46.51303" lon="6.07636">
        <ele>1269.611</ele>
        <time>2011-09-15T16:27:07Z</time>
      </trkpt>
      <trkpt lat="46.51233" lon="6.07603">
        <ele>1269.007</ele>
        <time>2011-09-15T16:27:56Z</time>
      </trkpt>
      <trkpt lat="46.51218" lon="6.07575">
        <ele>1270.038</ele>
        <time>2011-09-15T16:28:12Z</time>
      </trkpt>
      <trkpt lat="46.51243" lon="6.0753">
        <ele>1271.046</ele>
        <time>2011-09-15T16:28:40Z</time>
      </trkpt>
      <trkpt lat="46.51134" lon="6.07419">
        <ele>1271.48</ele>
        <time>2011-09-15T16:29:43Z</time>
      </trkpt>
      <trkpt lat="46.51035" lon="6.07259">
        <ele>1255.13</ele>
        <time>2011-09-15T16:31:41Z</time>
      </trkpt>
      <trkpt lat="46.51008" lon="6.07205">
        <ele>1253.371</ele>
        <time>2011-09-15T16:32:19Z</time>
      </trkpt>
      <trkpt lat="46.51013" lon="6.07185">
        <ele>1252.838</ele>
        <time>2011-09-15T16:32:51Z</time>
      </trkpt>
      <trkpt lat="46.50993" lon="6.07169">
        <ele>1252.332</ele>
        <time>2011-09-15T16:32:59Z</time>
      </trkpt>
      <trkpt lat="46.50963" lon="6.07043">
        <ele>1251.867</ele>
        <time>2011-09-15T16:34:22Z</time>
      </trkpt>
      <trkpt lat="46.50929" lon="6.07035">
        <ele>1250.881</ele>
        <time>2011-09-15T16:34:50Z</time>
      </trkpt>
      <trkpt lat="46.50854" lon="6.06984">
        <ele>1246.619</ele>
        <time>2011-09-15T16:35:36Z</time>
      </trkpt>
      <trkpt lat="46.50882" lon="6.06974">
        <ele>1244.907</ele>
        <time>2011-09-15T16:35:53Z</time>
      </trkpt>
      <trkpt lat="46.50834" lon="6.06942">
        <ele>1242.768</ele>
        <time>2011-09-15T16:36:23Z</time>
      </trkpt>
      <trkpt lat="46.50811" lon="6.06864">
        <ele>1239.426</ele>
        <time>2011-09-15T16:36:58Z</time>
      </trkpt>
      <trkpt lat="46.50738" lon="6.06735">
        <ele>1238.85</ele>
        <time>2011-09-15T16:38:01Z</time>
      </trkpt>
      <trkpt lat="46.50726" lon="6.06684">
        <ele>1238.99</ele>
        <time>2011-09-15T16:38:23Z</time>
      </trkpt>
      <trkpt lat="46.50679" lon="6.06619">
        <ele>1238.221</ele>
        <time>2011-09-15T16:39:06Z</time>
      </trkpt>
      <trkpt lat="46.50647" lon="6.06509">
        <ele>1237.748</ele>
        <time>2011-09-15T16:39:55Z</time>
      </trkpt>
      <trkpt lat="46.5055" lon="6.06361">
        <ele>1237.292</ele>
        <time>2011-09-15T16:41:25Z</time>
      </trkpt>
      <trkpt lat="46.50428" lon="6.06341">
        <ele>1233.996</ele>
        <time>2011-09-15T16:42:55Z</time>
      </trkpt>
      <trkpt lat="46.50424" lon="6.06308">
        <ele>1234.131</ele>
        <time>2011-09-15T16:43:10Z</time>
      </trkpt>
      <trkpt lat="46.50379" lon="6.06225">
        <ele>1237.324</ele>
        <time>2011-09-15T16:43:55Z</time>
      </trkpt>
      <trkpt lat="46.5035" lon="6.06199">
        <ele>1240.307</ele>
        <time>2011-09-15T16:44:17Z</time>
      </trkpt>
      <trkpt lat="46.50319" lon="6.06107">
        <ele>1245.191</ele>
        <time>2011-09-15T16:45:10Z</time>
      </trkpt>
      <trkpt lat="46.50321" lon="6.06052">
        <ele>1245.269</ele>
        <time>2011-09-15T16:45:38Z</time>
      </trkpt>
      <trkpt lat="46.5029" lon="6.05981">
        <ele>1241.593</ele>
        <time>2011-09-15T16:46:15Z</time>
      </trkpt>
      <trkpt lat="46.50226" lon="6.05948">
        <ele>1240.433</ele>
        <time>2011-09-15T16:47:11Z</time>
      </trkpt>
      <trkpt lat="46.50182" lon="6.05877">
        <ele>1238.064</ele>
        <time>2011-09-15T16:48:04Z</time>
      </trkpt>
      <trkpt lat="46.5013" lon="6.059">
        <ele>1232.781</ele>
        <time>2011-09-15T16:48:45Z</time>
      </trkpt>
      <trkpt lat="46.50025" lon="6.0586">
        <ele>1215.995</ele>
        <time>2011-09-15T16:49:58Z</time>
      </trkpt>
      <trkpt lat="46.50013" lon="6.05876">
        <ele>1218.819</ele>
        <time>2011-09-15T16:50:31Z</time>
      </trkpt>
      <trkpt lat="46.5" lon="6.05827">
        <ele>1213.809</ele>
        <time>2011-09-15T16:51:30Z</time>
      </trkpt>
      <trkpt lat="46.49959" lon="6.05802">
        <ele>1221.319</ele>
        <time>2011-09-15T16:52:35Z</time>
      </trkpt>
      <trkpt lat="46.49871" lon="6.05824">
        <ele>1222.107</ele>
        <time>2011-09-15T16:53:20Z</time>
      </trkpt>
      <trkpt lat="46.49828" lon="6.05805">
        <ele>1221.083</ele>
        <time>2011-09-15T16:54:33Z</time>
      </trkpt>
      <trkpt lat="46.49772" lon="6.05802">
        <ele>1211.761</ele>
        <time>2011-09-15T16:55:17Z</time>
      </trkpt>
      <trkpt lat="46.49711" lon="6.05721">
        <ele>1204.375</ele>
        <time>2011-09-15T16:56:16Z</time>
      </trkpt>
      <trkpt lat="46.49673" lon="6.05713">
        <ele>1203.815</ele>
        <time>2011-09-15T16:56:30Z</time>
      </trkpt>
      <trkpt lat="46.49657" lon="6.05725">
        <ele>1202.976</ele>
        <time>2011-09-15T16:56:40Z</time>
      </trkpt>
      <trkpt lat="46.49632" lon="6.05676">
        <ele>1203.133</ele>
        <time>2011-09-15T16:57:19Z</time>
      </trkpt>
      <trkpt lat="46.49538" lon="6.05611">
        <ele>1196.277</ele>
        <time>2011-09-15T16:58:25Z</time>
      </trkpt>
      <trkpt lat="46.49487" lon="6.05526">
        <ele>1190.523</ele>
        <time>2011-09-15T16:59:09Z</time>
      </trkpt>
      <trkpt lat="46.49429" lon="6.05523">
        <ele>1185.683</ele>
        <time>2011-09-15T16:59:41Z</time>
      </trkpt>
      <trkpt lat="46.49369" lon="6.05454">
        <ele>1176.911</ele>
        <time>2011-09-15T17:00:37Z</time>
      </trkpt>
      <trkpt lat="46.493" lon="6.05349">
        <ele>1163.407</ele>
        <time>2011-09-15T17:01:42Z</time>
      </trkpt>
      <trkpt lat="46.49299" lon="6.05283">
        <ele>1159.314</ele>
        <time>2011-09-15T17:02:16Z</time>
      </trkpt>
      <trkpt lat="46.4926" lon="6.05157">
        <ele>1154.132</ele>
        <time>2011-09-15T17:03:30Z</time>
      </trkpt>
      <trkpt lat="46.49211" lon="6.05156">
        <ele>1153.256</ele>
        <time>2011-09-15T17:03:57Z</time>
      </trkpt>
      <trkpt lat="46.49147" lon="6.05185">
        <ele>1144.576</ele>
        <time>2011-09-15T17:04:42Z</time>
      </trkpt>
      <trkpt lat="46.49092" lon="6.05245">
        <ele>1137.947</ele>
        <time>2011-09-15T17:05:27Z</time>
      </trkpt>
      <trkpt lat="46.49078" lon="6.05281">
        <ele>1133.674</ele>
        <time>2011-09-15T17:05:44Z</time>
      </trkpt>
      <trkpt lat="46.49052" lon="6.05289">
        <ele>1125.048</ele>
        <time>2011-09-15T17:06:08Z</time>
      </trkpt>
      <trkpt lat="46.49026" lon="6.0528">
        <ele>1124.947</ele>
        <time>2011-09-15T17:06:22Z</time>
      </trkpt>
      <trkpt lat="46.49006" lon="6.05216">
        <ele>1117.429</ele>
        <time>2011-09-15T17:06:53Z</time>
      </trkpt>
      <trkpt lat="46.48964" lon="6.05204">
        <ele>1108.221</ele>
        <time>2011-09-15T17:07:24Z</time>
      </trkpt>
      <trkpt lat="46.48966" lon="6.05141">
        <ele>1095.907</ele>
        <time>2011-09-15T17:08:00Z</time>
      </trkpt>
      <trkpt lat="46.48945" lon="6.051">
        <ele>1085.826</ele>
        <time>2011-09-15T17:08:27Z</time>
      </trkpt>
      <trkpt lat="46.48921" lon="6.05105">
        <ele>1085.514</ele>
        <time>2011-09-15T17:08:42Z</time>
      </trkpt>
      <trkpt lat="46.48891" lon="6.05143">
        <ele>1083.268</ele>
        <time>2011-09-15T17:09:07Z</time>
      </trkpt>
      <trkpt lat="46.4888" lon="6.05304">
        <ele>1080.678</ele>
        <time>2011-09-15T17:10:22Z</time>
      </trkpt>
      <trkpt lat="46.48823" lon="6.05509">
        <ele>1086.419</ele>
        <time>2011-09-15T17:12:06Z</time>
      </trkpt>
      <trkpt lat="46.48864" lon="6.05626">
        <ele>1089.446</ele>
        <time>2011-09-15T17:13:04Z</time>
      </trkpt>
      <trkpt lat="46.48859" lon="6.05829">
        <ele>1090.32</ele>
        <time>2011-09-15T17:14:38Z</time>
      </trkpt>
      <trkpt lat="46.48824" lon="6.05865">
        <ele>1086.096</ele>
        <time>2011-09-15T17:15:04Z</time>
      </trkpt>
      <trkpt lat="46.48809" lon="6.05931">
        <ele>1085.231</ele>
        <time>2011-09-15T17:15:35Z</time>
      </trkpt>
      <trkpt lat="46.48794" lon="6.05941">
        <ele>1085.224</ele>
        <time>2011-09-15T17:15:46Z</time>
      </trkpt>
      <trkpt lat="46.487" lon="6.05901">
        <ele>1091.307</ele>
        <time>2011-09-15T17:17:30Z</time>
      </trkpt>
      <trkpt lat="46.48664" lon="6.05972">
        <ele>1103.661</ele>
        <time>2011-09-15T17:18:19Z</time>
      </trkpt>
      <trkpt lat="46.4866" lon="6.06066">
        <ele>1109.799</ele>
        <time>2011-09-15T17:19:12Z</time>
      </trkpt>
      <trkpt lat="46.48628" lon="6.05997">
        <ele>1112.073</ele>
        <time>2011-09-15T17:19:58Z</time>
      </trkpt>
      <trkpt lat="46.4861" lon="6.06011">
        <ele>1113.263</ele>
        <time>2011-09-15T17:20:14Z</time>
      </trkpt>
    </trkseg>
  </trk>
</gpx>